sensor_id;sensor_type;location;lat;lon;timestamp;temperature;humidity
14946;DHT22;7567;50.916;6.900;2022-12-29T00:00:02;11.00;99.90
14946;DHT22;7567;50.916;6.900;2022-12-29T00:02:29;11.00;99.90
14946;DHT22;7567;50.916;6.900;2022-12-29T00:04:55;11.00;99.90
14946;DHT22;7567;50.916;6.900;2022-12-29T00:07:21;11.00;99.90
14946;DHT22;7567;50.916;6.900;2022-12-29T00:09:47;11.00;99.90
14946;DHT22;7567;50.916;6.900;2022-12-29T00:12:13;11.00;99.90
14946;DHT22;7567;50.916;6.900;2022-12-29T00:14:39;11.10;99.90
14946;DHT22;7567;50.916;6.900;2022-12-29T00:17:23;11.10;99.90
14946;DHT22;7567;50.916;6.900;2022-12-29T00:19:49;11.10;99.90
14946;DHT22;7567;50.916;6.900;2022-12-29T00:22:34;11.10;99.90
14946;DHT22;7567;50.916;6.900;2022-12-29T00:25:18;11.00;99.90
14946;DHT22;7567;50.916;6.900;2022-12-29T00:28:02;11.10;99.90
14946;DHT22;7567;50.916;6.900;2022-12-29T00:30:46;11.10;99.90
14946;DHT22;7567;50.916;6.900;2022-12-29T00:33:33;11.10;99.90
14946;DHT22;7567;50.916;6.900;2022-12-29T00:36:39;11.10;99.90
14946;DHT22;7567;50.916;6.900;2022-12-29T00:39:15;11.10;99.90
14946;DHT22;7567;50.916;6.900;2022-12-29T00:42:07;11.20;99.90
14946;DHT22;7567;50.916;6.900;2022-12-29T00:44:52;11.20;99.90
14946;DHT22;7567;50.916;6.900;2022-12-29T00:47:18;11.30;99.90
14946;DHT22;7567;50.916;6.900;2022-12-29T00:49:44;11.30;99.90
14946;DHT22;7567;50.916;6.900;2022-12-29T00:52:12;11.20;99.90
14946;DHT22;7567;50.916;6.900;2022-12-29T00:54:40;11.30;99.90
14946;DHT22;7567;50.916;6.900;2022-12-29T00:57:08;11.50;99.90
14946;DHT22;7567;50.916;6.900;2022-12-29T00:59:35;11.60;99.90
14946;DHT22;7567;50.916;6.900;2022-12-29T01:02:01;11.60;99.90
14946;DHT22;7567;50.916;6.900;2022-12-29T01:04:27;11.60;99.90
14946;DHT22;7567;50.916;6.900;2022-12-29T01:06:53;11.70;99.90
14946;DHT22;7567;50.916;6.900;2022-12-29T01:09:20;11.60;99.90
14946;DHT22;7567;50.916;6.900;2022-12-29T01:12:06;11.60;99.90
14946;DHT22;7567;50.916;6.900;2022-12-29T01:14:32;11.60;99.90
14946;DHT22;7567;50.916;6.900;2022-12-29T01:16:58;11.60;99.90
14946;DHT22;7567;50.916;6.900;2022-12-29T01:19:25;11.60;99.90
14946;DHT22;7567;50.916;6.900;2022-12-29T01:21:51;11.60;99.90
14946;DHT22;7567;50.916;6.900;2022-12-29T01:24:18;11.70;99.90
14946;DHT22;7567;50.916;6.900;2022-12-29T01:26:44;11.80;99.90
14946;DHT22;7567;50.916;6.900;2022-12-29T01:29:11;11.90;99.90
14946;DHT22;7567;50.916;6.900;2022-12-29T01:31:37;11.90;99.90
14946;DHT22;7567;50.916;6.900;2022-12-29T01:34:03;11.80;99.90
14946;DHT22;7567;50.916;6.900;2022-12-29T01:36:30;11.90;99.90
14946;DHT22;7567;50.916;6.900;2022-12-29T01:38:56;11.90;99.90
14946;DHT22;7567;50.916;6.900;2022-12-29T01:41:22;11.90;99.90
14946;DHT22;7567;50.916;6.900;2022-12-29T01:43:56;11.90;99.90
14946;DHT22;7567;50.916;6.900;2022-12-29T01:46:26;12.00;99.90
14946;DHT22;7567;50.916;6.900;2022-12-29T01:51:49;12.10;99.90
14946;DHT22;7567;50.916;6.900;2022-12-29T01:54:21;12.30;99.90
14946;DHT22;7567;50.916;6.900;2022-12-29T01:56:49;12.00;99.90
14946;DHT22;7567;50.916;6.900;2022-12-29T01:59:20;12.00;99.90
14946;DHT22;7567;50.916;6.900;2022-12-29T02:01:49;12.10;99.90
14946;DHT22;7567;50.916;6.900;2022-12-29T02:04:15;12.00;99.90
14946;DHT22;7567;50.916;6.900;2022-12-29T02:06:48;11.90;99.90
14946;DHT22;7567;50.916;6.900;2022-12-29T02:09:16;12.00;99.90
14946;DHT22;7567;50.916;6.900;2022-12-29T02:11:42;11.90;99.90
14946;DHT22;7567;50.916;6.900;2022-12-29T02:14:12;11.90;99.90
14946;DHT22;7567;50.916;6.900;2022-12-29T02:17:14;11.90;99.90
14946;DHT22;7567;50.916;6.900;2022-12-29T02:25:32;12.00;99.90
14946;DHT22;7567;50.916;6.900;2022-12-29T02:36:56;11.90;99.90
14946;DHT22;7567;50.916;6.900;2022-12-29T02:38:59;12.10;99.90
14946;DHT22;7567;50.916;6.900;2022-12-29T02:41:38;12.00;99.90
14946;DHT22;7567;50.916;6.900;2022-12-29T02:44:30;12.10;99.90
14946;DHT22;7567;50.916;6.900;2022-12-29T02:50:06;12.00;99.90
14946;DHT22;7567;50.916;6.900;2022-12-29T02:52:38;11.90;99.90
14946;DHT22;7567;50.916;6.900;2022-12-29T02:55:05;12.00;99.90
14946;DHT22;7567;50.916;6.900;2022-12-29T02:57:35;11.90;99.90
14946;DHT22;7567;50.916;6.900;2022-12-29T03:00:05;11.90;99.90
14946;DHT22;7567;50.916;6.900;2022-12-29T03:05:22;11.90;99.90
14946;DHT22;7567;50.916;6.900;2022-12-29T03:08:23;11.80;99.90
14946;DHT22;7567;50.916;6.900;2022-12-29T03:11:03;11.90;99.90
14946;DHT22;7567;50.916;6.900;2022-12-29T03:13:39;11.80;99.90
14946;DHT22;7567;50.916;6.900;2022-12-29T03:16:47;11.80;99.90
14946;DHT22;7567;50.916;6.900;2022-12-29T03:22:22;11.80;99.90
14946;DHT22;7567;50.916;6.900;2022-12-29T03:25:08;11.90;99.90
14946;DHT22;7567;50.916;6.900;2022-12-29T03:27:43;11.90;99.90
14946;DHT22;7567;50.916;6.900;2022-12-29T03:30:10;11.80;99.90
14946;DHT22;7567;50.916;6.900;2022-12-29T03:32:49;11.80;99.90
14946;DHT22;7567;50.916;6.900;2022-12-29T03:35:18;11.70;99.90
14946;DHT22;7567;50.916;6.900;2022-12-29T03:37:54;11.80;99.90
14946;DHT22;7567;50.916;6.900;2022-12-29T03:40:23;11.90;99.90
14946;DHT22;7567;50.916;6.900;2022-12-29T03:42:51;11.90;99.90
14946;DHT22;7567;50.916;6.900;2022-12-29T03:45:18;11.90;99.90
14946;DHT22;7567;50.916;6.900;2022-12-29T03:47:45;11.90;99.90
14946;DHT22;7567;50.916;6.900;2022-12-29T03:50:13;11.90;99.90
14946;DHT22;7567;50.916;6.900;2022-12-29T03:52:39;12.00;99.90
14946;DHT22;7567;50.916;6.900;2022-12-29T03:55:06;12.00;99.90
14946;DHT22;7567;50.916;6.900;2022-12-29T03:57:32;11.90;99.90
14946;DHT22;7567;50.916;6.900;2022-12-29T03:59:58;11.80;99.90
14946;DHT22;7567;50.916;6.900;2022-12-29T04:02:24;11.90;99.90
14946;DHT22;7567;50.916;6.900;2022-12-29T04:04:50;11.90;99.90
14946;DHT22;7567;50.916;6.900;2022-12-29T04:07:16;11.90;99.90
14946;DHT22;7567;50.916;6.900;2022-12-29T04:09:42;11.80;99.90
14946;DHT22;7567;50.916;6.900;2022-12-29T04:12:08;11.80;99.90
14946;DHT22;7567;50.916;6.900;2022-12-29T04:14:34;11.70;99.90
14946;DHT22;7567;50.916;6.900;2022-12-29T04:17:00;11.50;99.90
14946;DHT22;7567;50.916;6.900;2022-12-29T04:19:26;11.40;99.90
14946;DHT22;7567;50.916;6.900;2022-12-29T04:21:52;11.50;99.90
14946;DHT22;7567;50.916;6.900;2022-12-29T04:24:18;11.50;99.90
14946;DHT22;7567;50.916;6.900;2022-12-29T04:26:44;11.60;99.90
14946;DHT22;7567;50.916;6.900;2022-12-29T04:29:10;11.60;99.90
14946;DHT22;7567;50.916;6.900;2022-12-29T04:31:36;11.60;99.90
14946;DHT22;7567;50.916;6.900;2022-12-29T04:34:02;11.60;99.90
14946;DHT22;7567;50.916;6.900;2022-12-29T04:36:28;11.60;99.90
14946;DHT22;7567;50.916;6.900;2022-12-29T04:38:54;11.50;99.90
14946;DHT22;7567;50.916;6.900;2022-12-29T04:41:20;11.40;99.90
14946;DHT22;7567;50.916;6.900;2022-12-29T04:43:46;11.50;99.90
14946;DHT22;7567;50.916;6.900;2022-12-29T04:46:12;11.50;99.90
14946;DHT22;7567;50.916;6.900;2022-12-29T04:48:38;11.60;99.90
14946;DHT22;7567;50.916;6.900;2022-12-29T04:51:05;11.70;99.90
14946;DHT22;7567;50.916;6.900;2022-12-29T04:53:31;11.80;99.90
14946;DHT22;7567;50.916;6.900;2022-12-29T04:55:57;11.90;99.90
14946;DHT22;7567;50.916;6.900;2022-12-29T04:58:22;11.90;99.90
14946;DHT22;7567;50.916;6.900;2022-12-29T05:00:50;11.90;99.90
14946;DHT22;7567;50.916;6.900;2022-12-29T05:03:16;11.80;99.90
14946;DHT22;7567;50.916;6.900;2022-12-29T05:05:42;11.70;99.90
14946;DHT22;7567;50.916;6.900;2022-12-29T05:08:09;11.80;99.90
14946;DHT22;7567;50.916;6.900;2022-12-29T05:10:35;11.70;99.90
14946;DHT22;7567;50.916;6.900;2022-12-29T05:13:01;11.70;99.90
14946;DHT22;7567;50.916;6.900;2022-12-29T05:15:27;11.60;99.90
14946;DHT22;7567;50.916;6.900;2022-12-29T05:17:53;11.50;99.90
14946;DHT22;7567;50.916;6.900;2022-12-29T05:20:19;11.40;99.90
14946;DHT22;7567;50.916;6.900;2022-12-29T05:22:46;11.40;99.90
14946;DHT22;7567;50.916;6.900;2022-12-29T05:25:12;11.50;99.90
14946;DHT22;7567;50.916;6.900;2022-12-29T05:27:38;11.40;99.90
14946;DHT22;7567;50.916;6.900;2022-12-29T05:30:04;11.40;99.90
14946;DHT22;7567;50.916;6.900;2022-12-29T05:32:30;11.40;99.90
14946;DHT22;7567;50.916;6.900;2022-12-29T05:34:56;11.50;99.90
14946;DHT22;7567;50.916;6.900;2022-12-29T05:37:22;11.40;99.90
14946;DHT22;7567;50.916;6.900;2022-12-29T05:39:48;11.30;99.90
14946;DHT22;7567;50.916;6.900;2022-12-29T05:42:14;11.50;99.90
14946;DHT22;7567;50.916;6.900;2022-12-29T05:44:40;11.40;99.90
14946;DHT22;7567;50.916;6.900;2022-12-29T05:47:06;11.40;99.90
14946;DHT22;7567;50.916;6.900;2022-12-29T05:49:32;11.30;99.90
14946;DHT22;7567;50.916;6.900;2022-12-29T05:51:58;11.50;99.90
14946;DHT22;7567;50.916;6.900;2022-12-29T05:54:24;11.50;99.90
14946;DHT22;7567;50.916;6.900;2022-12-29T05:56:50;11.60;99.90
14946;DHT22;7567;50.916;6.900;2022-12-29T05:59:16;11.70;99.90
14946;DHT22;7567;50.916;6.900;2022-12-29T06:01:42;11.60;99.90
14946;DHT22;7567;50.916;6.900;2022-12-29T06:04:08;11.70;99.90
14946;DHT22;7567;50.916;6.900;2022-12-29T06:06:35;11.70;99.90
14946;DHT22;7567;50.916;6.900;2022-12-29T06:09:01;11.70;99.90
14946;DHT22;7567;50.916;6.900;2022-12-29T06:11:27;11.80;99.90
14946;DHT22;7567;50.916;6.900;2022-12-29T06:13:52;11.70;99.90
14946;DHT22;7567;50.916;6.900;2022-12-29T06:16:18;11.70;99.90
14946;DHT22;7567;50.916;6.900;2022-12-29T06:18:45;11.70;99.90
14946;DHT22;7567;50.916;6.900;2022-12-29T06:21:11;11.70;99.90
14946;DHT22;7567;50.916;6.900;2022-12-29T06:23:37;11.80;99.90
14946;DHT22;7567;50.916;6.900;2022-12-29T06:26:03;11.80;99.90
14946;DHT22;7567;50.916;6.900;2022-12-29T06:28:29;11.80;99.90
14946;DHT22;7567;50.916;6.900;2022-12-29T06:30:55;11.80;99.90
14946;DHT22;7567;50.916;6.900;2022-12-29T06:33:23;11.80;99.90
14946;DHT22;7567;50.916;6.900;2022-12-29T06:35:49;11.60;99.90
14946;DHT22;7567;50.916;6.900;2022-12-29T06:38:15;11.80;99.90
14946;DHT22;7567;50.916;6.900;2022-12-29T06:40:42;11.70;99.90
14946;DHT22;7567;50.916;6.900;2022-12-29T06:43:08;11.70;99.90
14946;DHT22;7567;50.916;6.900;2022-12-29T06:45:34;11.70;99.90
14946;DHT22;7567;50.916;6.900;2022-12-29T06:48:00;11.80;99.90
14946;DHT22;7567;50.916;6.900;2022-12-29T06:50:26;11.70;99.90
14946;DHT22;7567;50.916;6.900;2022-12-29T06:52:52;11.70;99.90
14946;DHT22;7567;50.916;6.900;2022-12-29T06:55:18;11.60;99.90
14946;DHT22;7567;50.916;6.900;2022-12-29T06:57:44;11.50;99.90
14946;DHT22;7567;50.916;6.900;2022-12-29T07:00:10;11.50;99.90
14946;DHT22;7567;50.916;6.900;2022-12-29T07:02:37;11.60;99.90
14946;DHT22;7567;50.916;6.900;2022-12-29T07:05:03;11.60;99.90
14946;DHT22;7567;50.916;6.900;2022-12-29T07:07:29;11.80;99.90
14946;DHT22;7567;50.916;6.900;2022-12-29T07:09:55;11.70;99.90
14946;DHT22;7567;50.916;6.900;2022-12-29T07:12:21;11.60;99.90
14946;DHT22;7567;50.916;6.900;2022-12-29T07:14:47;11.50;99.90
14946;DHT22;7567;50.916;6.900;2022-12-29T07:17:13;11.60;99.90
14946;DHT22;7567;50.916;6.900;2022-12-29T07:19:39;11.50;99.90
14946;DHT22;7567;50.916;6.900;2022-12-29T07:22:05;11.60;99.90
14946;DHT22;7567;50.916;6.900;2022-12-29T07:24:31;11.60;99.90
14946;DHT22;7567;50.916;6.900;2022-12-29T07:26:57;11.70;99.90
14946;DHT22;7567;50.916;6.900;2022-12-29T07:29:23;11.60;99.90
14946;DHT22;7567;50.916;6.900;2022-12-29T07:31:50;11.60;99.90
14946;DHT22;7567;50.916;6.900;2022-12-29T07:34:16;11.70;99.90
14946;DHT22;7567;50.916;6.900;2022-12-29T07:36:41;11.60;99.90
14946;DHT22;7567;50.916;6.900;2022-12-29T07:39:08;11.60;99.90
14946;DHT22;7567;50.916;6.900;2022-12-29T07:41:34;11.50;99.90
14946;DHT22;7567;50.916;6.900;2022-12-29T07:44:00;11.50;99.90
14946;DHT22;7567;50.916;6.900;2022-12-29T07:46:27;11.40;99.90
14946;DHT22;7567;50.916;6.900;2022-12-29T07:48:53;11.40;99.90
14946;DHT22;7567;50.916;6.900;2022-12-29T07:51:19;11.40;99.90
14946;DHT22;7567;50.916;6.900;2022-12-29T07:53:45;11.30;99.90
14946;DHT22;7567;50.916;6.900;2022-12-29T07:56:11;11.40;99.90
14946;DHT22;7567;50.916;6.900;2022-12-29T07:58:37;11.30;99.90
14946;DHT22;7567;50.916;6.900;2022-12-29T08:01:03;11.30;99.90
14946;DHT22;7567;50.916;6.900;2022-12-29T08:03:29;11.30;99.90
14946;DHT22;7567;50.916;6.900;2022-12-29T08:05:56;11.30;99.90
14946;DHT22;7567;50.916;6.900;2022-12-29T08:08:22;11.40;99.90
14946;DHT22;7567;50.916;6.900;2022-12-29T08:10:48;11.40;99.90
14946;DHT22;7567;50.916;6.900;2022-12-29T08:13:14;11.40;99.90
14946;DHT22;7567;50.916;6.900;2022-12-29T08:15:40;11.40;99.90
14946;DHT22;7567;50.916;6.900;2022-12-29T08:18:06;11.40;99.90
14946;DHT22;7567;50.916;6.900;2022-12-29T08:20:32;11.60;99.90
14946;DHT22;7567;50.916;6.900;2022-12-29T08:22:59;11.50;99.90
14946;DHT22;7567;50.916;6.900;2022-12-29T08:25:25;11.50;99.90
14946;DHT22;7567;50.916;6.900;2022-12-29T08:27:51;11.60;99.90
14946;DHT22;7567;50.916;6.900;2022-12-29T08:30:17;11.40;99.90
14946;DHT22;7567;50.916;6.900;2022-12-29T08:32:43;11.40;99.90
14946;DHT22;7567;50.916;6.900;2022-12-29T08:35:09;11.50;99.90
14946;DHT22;7567;50.916;6.900;2022-12-29T08:37:35;11.50;99.90
14946;DHT22;7567;50.916;6.900;2022-12-29T08:40:01;11.40;99.90
14946;DHT22;7567;50.916;6.900;2022-12-29T08:42:32;11.40;99.90
14946;DHT22;7567;50.916;6.900;2022-12-29T08:44:59;11.20;99.90
14946;DHT22;7567;50.916;6.900;2022-12-29T08:47:25;11.20;99.90
14946;DHT22;7567;50.916;6.900;2022-12-29T08:49:51;11.20;99.90
14946;DHT22;7567;50.916;6.900;2022-12-29T08:52:18;11.10;99.90
14946;DHT22;7567;50.916;6.900;2022-12-29T08:54:44;11.10;99.90
14946;DHT22;7567;50.916;6.900;2022-12-29T08:57:10;11.30;99.90
14946;DHT22;7567;50.916;6.900;2022-12-29T08:59:36;11.30;99.90
14946;DHT22;7567;50.916;6.900;2022-12-29T09:02:02;11.30;99.90
14946;DHT22;7567;50.916;6.900;2022-12-29T09:04:28;11.30;99.90
14946;DHT22;7567;50.916;6.900;2022-12-29T09:06:54;11.30;99.90
14946;DHT22;7567;50.916;6.900;2022-12-29T09:09:21;11.30;99.90
14946;DHT22;7567;50.916;6.900;2022-12-29T09:11:47;11.30;99.90
14946;DHT22;7567;50.916;6.900;2022-12-29T09:14:13;11.30;99.90
14946;DHT22;7567;50.916;6.900;2022-12-29T09:16:39;11.40;99.90
14946;DHT22;7567;50.916;6.900;2022-12-29T09:19:24;11.40;99.90
14946;DHT22;7567;50.916;6.900;2022-12-29T09:21:50;11.40;99.90
14946;DHT22;7567;50.916;6.900;2022-12-29T09:24:16;11.40;99.90
14946;DHT22;7567;50.916;6.900;2022-12-29T09:26:42;11.30;99.90
14946;DHT22;7567;50.916;6.900;2022-12-29T09:29:08;11.40;99.90
14946;DHT22;7567;50.916;6.900;2022-12-29T09:31:34;11.40;99.90
14946;DHT22;7567;50.916;6.900;2022-12-29T09:34:00;11.50;99.90
14946;DHT22;7567;50.916;6.900;2022-12-29T09:36:26;11.50;99.90
14946;DHT22;7567;50.916;6.900;2022-12-29T09:38:53;11.50;99.90
14946;DHT22;7567;50.916;6.900;2022-12-29T09:41:43;11.50;99.90
14946;DHT22;7567;50.916;6.900;2022-12-29T09:44:23;11.50;99.90
14946;DHT22;7567;50.916;6.900;2022-12-29T09:46:52;11.70;99.90
14946;DHT22;7567;50.916;6.900;2022-12-29T09:49:30;11.70;99.90
14946;DHT22;7567;50.916;6.900;2022-12-29T09:52:05;11.80;99.90
14946;DHT22;7567;50.916;6.900;2022-12-29T09:54:54;12.00;99.90
14946;DHT22;7567;50.916;6.900;2022-12-29T10:00:28;12.10;99.90
14946;DHT22;7567;50.916;6.900;2022-12-29T10:03:05;12.20;99.90
14946;DHT22;7567;50.916;6.900;2022-12-29T10:08:25;12.20;99.90
14946;DHT22;7567;50.916;6.900;2022-12-29T10:11:02;12.40;99.90
14946;DHT22;7567;50.916;6.900;2022-12-29T10:16:20;12.60;99.90
14946;DHT22;7567;50.916;6.900;2022-12-29T10:19:42;12.60;99.90
14946;DHT22;7567;50.916;6.900;2022-12-29T10:25:17;13.00;99.90
14946;DHT22;7567;50.916;6.900;2022-12-29T10:27:48;13.20;99.90
14946;DHT22;7567;50.916;6.900;2022-12-29T10:30:15;13.10;99.90
14946;DHT22;7567;50.916;6.900;2022-12-29T10:33:03;13.00;99.90
14946;DHT22;7567;50.916;6.900;2022-12-29T10:35:36;13.00;99.90
14946;DHT22;7567;50.916;6.900;2022-12-29T10:43:29;12.90;99.90
14946;DHT22;7567;50.916;6.900;2022-12-29T10:46:03;12.70;99.90
14946;DHT22;7567;50.916;6.900;2022-12-29T10:48:34;12.70;99.90
14946;DHT22;7567;50.916;6.900;2022-12-29T10:51:07;12.80;99.90
14946;DHT22;7567;50.916;6.900;2022-12-29T10:53:51;12.70;99.90
14946;DHT22;7567;50.916;6.900;2022-12-29T10:56:34;12.90;99.90
14946;DHT22;7567;50.916;6.900;2022-12-29T10:59:13;12.90;99.90
14946;DHT22;7567;50.916;6.900;2022-12-29T11:07:01;13.00;99.90
14946;DHT22;7567;50.916;6.900;2022-12-29T11:09:31;13.30;99.90
14946;DHT22;7567;50.916;6.900;2022-12-29T11:11:58;13.20;99.90
14946;DHT22;7567;50.916;6.900;2022-12-29T11:14:31;13.10;99.90
14946;DHT22;7567;50.916;6.900;2022-12-29T11:16:59;13.00;99.90
14946;DHT22;7567;50.916;6.900;2022-12-29T11:19:28;13.10;99.90
14946;DHT22;7567;50.916;6.900;2022-12-29T11:21:54;13.30;99.90
14946;DHT22;7567;50.916;6.900;2022-12-29T11:24:23;13.60;99.90
14946;DHT22;7567;50.916;6.900;2022-12-29T11:26:54;13.50;99.90
14946;DHT22;7567;50.916;6.900;2022-12-29T11:29:28;13.30;99.90
14946;DHT22;7567;50.916;6.900;2022-12-29T11:32:11;13.40;99.90
14946;DHT22;7567;50.916;6.900;2022-12-29T11:34:38;13.70;99.90
14946;DHT22;7567;50.916;6.900;2022-12-29T11:37:14;13.70;99.90
14946;DHT22;7567;50.916;6.900;2022-12-29T11:39:52;13.30;99.90
14946;DHT22;7567;50.916;6.900;2022-12-29T11:42:23;13.10;99.90
14946;DHT22;7567;50.916;6.900;2022-12-29T11:44:55;12.80;99.90
14946;DHT22;7567;50.916;6.900;2022-12-29T11:47:28;12.80;99.90
14946;DHT22;7567;50.916;6.900;2022-12-29T11:49:58;12.70;99.90
14946;DHT22;7567;50.916;6.900;2022-12-29T11:52:28;12.60;99.90
14946;DHT22;7567;50.916;6.900;2022-12-29T11:54:56;12.60;99.90
14946;DHT22;7567;50.916;6.900;2022-12-29T11:57:23;12.60;99.90
14946;DHT22;7567;50.916;6.900;2022-12-29T11:59:55;12.60;99.90
14946;DHT22;7567;50.916;6.900;2022-12-29T12:02:36;12.50;99.90
14946;DHT22;7567;50.916;6.900;2022-12-29T12:05:13;12.60;99.90
14946;DHT22;7567;50.916;6.900;2022-12-29T12:07:41;12.60;99.90
14946;DHT22;7567;50.916;6.900;2022-12-29T12:10:50;12.80;99.90
14946;DHT22;7567;50.916;6.900;2022-12-29T12:13:40;12.60;99.90
14946;DHT22;7567;50.916;6.900;2022-12-29T12:16:14;12.50;99.90
14946;DHT22;7567;50.916;6.900;2022-12-29T12:18:54;12.60;99.90
14946;DHT22;7567;50.916;6.900;2022-12-29T12:21:39;12.50;99.90
14946;DHT22;7567;50.916;6.900;2022-12-29T12:30:14;12.50;99.90
14946;DHT22;7567;50.916;6.900;2022-12-29T12:32:48;12.50;99.90
14946;DHT22;7567;50.916;6.900;2022-12-29T12:38:24;12.40;99.90
14946;DHT22;7567;50.916;6.900;2022-12-29T12:43:50;12.30;99.90
14946;DHT22;7567;50.916;6.900;2022-12-29T12:46:47;12.30;99.90
14946;DHT22;7567;50.916;6.900;2022-12-29T12:59:52;13.10;99.90
14946;DHT22;7567;50.916;6.900;2022-12-29T13:02:42;13.30;99.90
14946;DHT22;7567;50.916;6.900;2022-12-29T13:23:55;12.00;99.90
14946;DHT22;7567;50.916;6.900;2022-12-29T13:26:54;11.90;99.90
14946;DHT22;7567;50.916;6.900;2022-12-29T13:35:33;11.90;99.90
14946;DHT22;7567;50.916;6.900;2022-12-29T13:41:10;11.90;99.90
14946;DHT22;7567;50.916;6.900;2022-12-29T13:43:40;11.90;99.90
14946;DHT22;7567;50.916;6.900;2022-12-29T13:46:18;11.80;99.90
14946;DHT22;7567;50.916;6.900;2022-12-29T13:49:26;11.80;99.90
14946;DHT22;7567;50.916;6.900;2022-12-29T13:51:57;11.70;99.90
14946;DHT22;7567;50.916;6.900;2022-12-29T13:54:39;11.70;99.90
14946;DHT22;7567;50.916;6.900;2022-12-29T14:00:14;11.70;99.90
14946;DHT22;7567;50.916;6.900;2022-12-29T14:05:32;11.80;99.90
14946;DHT22;7567;50.916;6.900;2022-12-29T14:08:04;11.70;99.90
14946;DHT22;7567;50.916;6.900;2022-12-29T14:10:48;11.70;99.90
14946;DHT22;7567;50.916;6.900;2022-12-29T14:13:18;11.70;99.90
14946;DHT22;7567;50.916;6.900;2022-12-29T14:15:51;11.60;99.90
14946;DHT22;7567;50.916;6.900;2022-12-29T14:18:20;11.60;99.90
14946;DHT22;7567;50.916;6.900;2022-12-29T14:20:54;11.50;99.90
14946;DHT22;7567;50.916;6.900;2022-12-29T14:23:43;11.50;99.90
14946;DHT22;7567;50.916;6.900;2022-12-29T14:26:12;11.50;99.90
14946;DHT22;7567;50.916;6.900;2022-12-29T14:28:41;11.50;99.90
14946;DHT22;7567;50.916;6.900;2022-12-29T14:33:40;11.40;99.90
14946;DHT22;7567;50.916;6.900;2022-12-29T14:38:47;11.30;99.90
14946;DHT22;7567;50.916;6.900;2022-12-29T14:41:32;11.20;99.90
14946;DHT22;7567;50.916;6.900;2022-12-29T14:49:22;11.10;99.90
14946;DHT22;7567;50.916;6.900;2022-12-29T14:51:53;11.00;99.90
14946;DHT22;7567;50.916;6.900;2022-12-29T14:57:06;11.00;99.90
14946;DHT22;7567;50.916;6.900;2022-12-29T14:59:34;11.00;99.90
14946;DHT22;7567;50.916;6.900;2022-12-29T15:02:04;10.90;99.90
14946;DHT22;7567;50.916;6.900;2022-12-29T15:04:39;10.90;99.90
14946;DHT22;7567;50.916;6.900;2022-12-29T15:07:09;10.90;99.90
14946;DHT22;7567;50.916;6.900;2022-12-29T15:09:50;10.90;99.90
14946;DHT22;7567;50.916;6.900;2022-12-29T15:14:57;10.80;99.90
14946;DHT22;7567;50.916;6.900;2022-12-29T15:17:27;10.70;99.90
14946;DHT22;7567;50.916;6.900;2022-12-29T15:19:55;10.60;99.90
14946;DHT22;7567;50.916;6.900;2022-12-29T15:22:22;10.60;99.90
14946;DHT22;7567;50.916;6.900;2022-12-29T15:24:54;10.60;99.90
14946;DHT22;7567;50.916;6.900;2022-12-29T15:27:23;10.40;99.90
14946;DHT22;7567;50.916;6.900;2022-12-29T15:29:59;10.40;99.90
14946;DHT22;7567;50.916;6.900;2022-12-29T15:32:28;10.30;99.90
14946;DHT22;7567;50.916;6.900;2022-12-29T15:34:57;10.40;99.90
14946;DHT22;7567;50.916;6.900;2022-12-29T15:37:35;10.30;99.90
14946;DHT22;7567;50.916;6.900;2022-12-29T15:40:03;10.10;99.90
14946;DHT22;7567;50.916;6.900;2022-12-29T15:43:10;10.10;99.90
14946;DHT22;7567;50.916;6.900;2022-12-29T15:45:34;10.00;99.90
14946;DHT22;7567;50.916;6.900;2022-12-29T15:48:01;10.00;99.90
14946;DHT22;7567;50.916;6.900;2022-12-29T15:50:33;10.00;99.90
14946;DHT22;7567;50.916;6.900;2022-12-29T15:53:00;10.10;99.90
14946;DHT22;7567;50.916;6.900;2022-12-29T15:55:34;10.00;99.90
14946;DHT22;7567;50.916;6.900;2022-12-29T15:58:03;9.90;99.90
14946;DHT22;7567;50.916;6.900;2022-12-29T16:00:35;9.90;99.90
14946;DHT22;7567;50.916;6.900;2022-12-29T16:03:05;9.80;99.90
14946;DHT22;7567;50.916;6.900;2022-12-29T16:05:36;9.80;99.90
14946;DHT22;7567;50.916;6.900;2022-12-29T16:08:20;9.80;99.90
14946;DHT22;7567;50.916;6.900;2022-12-29T16:10:47;9.70;99.90
14946;DHT22;7567;50.916;6.900;2022-12-29T16:13:28;9.60;99.90
14946;DHT22;7567;50.916;6.900;2022-12-29T16:16:12;9.60;99.90
14946;DHT22;7567;50.916;6.900;2022-12-29T16:18:39;9.60;99.90
14946;DHT22;7567;50.916;6.900;2022-12-29T16:21:16;9.60;99.90
14946;DHT22;7567;50.916;6.900;2022-12-29T16:23:48;9.50;99.90
14946;DHT22;7567;50.916;6.900;2022-12-29T16:26:20;9.50;99.90
14946;DHT22;7567;50.916;6.900;2022-12-29T16:28:53;9.50;99.90
14946;DHT22;7567;50.916;6.900;2022-12-29T16:31:25;9.30;99.90
14946;DHT22;7567;50.916;6.900;2022-12-29T16:33:57;9.20;99.90
14946;DHT22;7567;50.916;6.900;2022-12-29T16:36:34;9.30;99.90
14946;DHT22;7567;50.916;6.900;2022-12-29T16:42:34;9.10;99.90
14946;DHT22;7567;50.916;6.900;2022-12-29T16:48:21;8.90;99.90
14946;DHT22;7567;50.916;6.900;2022-12-29T16:50:49;8.90;99.90
14946;DHT22;7567;50.916;6.900;2022-12-29T16:53:35;8.80;99.90
14946;DHT22;7567;50.916;6.900;2022-12-29T16:56:14;8.80;99.90
14946;DHT22;7567;50.916;6.900;2022-12-29T16:58:41;8.90;99.90
14946;DHT22;7567;50.916;6.900;2022-12-29T17:01:07;8.80;99.90
14946;DHT22;7567;50.916;6.900;2022-12-29T17:03:44;8.70;99.90
14946;DHT22;7567;50.916;6.900;2022-12-29T17:06:15;8.70;99.90
14946;DHT22;7567;50.916;6.900;2022-12-29T17:08:43;8.80;99.90
14946;DHT22;7567;50.916;6.900;2022-12-29T17:11:29;8.80;99.90
14946;DHT22;7567;50.916;6.900;2022-12-29T17:16:49;8.60;99.90
14946;DHT22;7567;50.916;6.900;2022-12-29T17:19:20;8.70;99.90
14946;DHT22;7567;50.916;6.900;2022-12-29T17:21:50;8.80;99.90
14946;DHT22;7567;50.916;6.900;2022-12-29T17:24:19;8.80;99.90
14946;DHT22;7567;50.916;6.900;2022-12-29T17:26:48;8.80;99.90
14946;DHT22;7567;50.916;6.900;2022-12-29T17:31:47;8.70;99.90
14946;DHT22;7567;50.916;6.900;2022-12-29T17:34:13;8.60;99.90
14946;DHT22;7567;50.916;6.900;2022-12-29T17:36:39;8.60;99.90
14946;DHT22;7567;50.916;6.900;2022-12-29T17:39:05;8.70;99.90
14946;DHT22;7567;50.916;6.900;2022-12-29T17:41:34;8.80;99.90
14946;DHT22;7567;50.916;6.900;2022-12-29T17:44:01;8.70;99.90
14946;DHT22;7567;50.916;6.900;2022-12-29T17:46:27;8.60;99.90
14946;DHT22;7567;50.916;6.900;2022-12-29T17:48:53;8.50;99.90
14946;DHT22;7567;50.916;6.900;2022-12-29T17:51:20;8.50;99.90
14946;DHT22;7567;50.916;6.900;2022-12-29T17:53:46;8.50;99.90
14946;DHT22;7567;50.916;6.900;2022-12-29T17:56:12;8.40;99.90
14946;DHT22;7567;50.916;6.900;2022-12-29T17:58:38;8.50;99.90
14946;DHT22;7567;50.916;6.900;2022-12-29T18:01:05;8.40;99.90
14946;DHT22;7567;50.916;6.900;2022-12-29T18:03:33;8.30;99.90
14946;DHT22;7567;50.916;6.900;2022-12-29T18:06:00;8.40;99.90
14946;DHT22;7567;50.916;6.900;2022-12-29T18:08:27;8.40;99.90
14946;DHT22;7567;50.916;6.900;2022-12-29T18:10:54;8.30;99.90
14946;DHT22;7567;50.916;6.900;2022-12-29T18:15:48;8.40;99.90
14946;DHT22;7567;50.916;6.900;2022-12-29T18:18:17;8.50;99.90
14946;DHT22;7567;50.916;6.900;2022-12-29T18:20:44;8.40;99.90
14946;DHT22;7567;50.916;6.900;2022-12-29T18:23:43;8.50;99.90